sensor_id;sensor_type;location;lat;lon;timestamp;temperature;humidity
19037;DHT22;9651;49.138;8.900;2024-01-30T00:03:41;2.10;99.90
19037;DHT22;9651;49.138;8.900;2024-01-30T00:07:43;2.10;99.90
19037;DHT22;9651;49.138;8.900;2024-01-30T00:11:45;2.00;99.90
19037;DHT22;9651;49.138;8.900;2024-01-30T00:15:48;2.00;99.90
19037;DHT22;9651;49.138;8.900;2024-01-30T00:19:50;2.10;99.90
19037;DHT22;9651;49.138;8.900;2024-01-30T00:23:52;2.00;99.90
19037;DHT22;9651;49.138;8.900;2024-01-30T00:27:54;2.10;99.90
19037;DHT22;9651;49.138;8.900;2024-01-30T00:31:58;2.00;99.90
19037;DHT22;9651;49.138;8.900;2024-01-30T00:35:59;2.00;99.90
19037;DHT22;9651;49.138;8.900;2024-01-30T00:40:01;2.00;99.90
19037;DHT22;9651;49.138;8.900;2024-01-30T00:44:04;2.00;99.90
19037;DHT22;9651;49.138;8.900;2024-01-30T00:48:07;2.00;99.90
19037;DHT22;9651;49.138;8.900;2024-01-30T00:52:09;2.00;99.90
19037;DHT22;9651;49.138;8.900;2024-01-30T00:56:12;1.90;99.90
19037;DHT22;9651;49.138;8.900;2024-01-30T01:00:14;1.90;99.90
19037;DHT22;9651;49.138;8.900;2024-01-30T01:04:18;1.90;99.90
19037;DHT22;9651;49.138;8.900;2024-01-30T01:08:21;1.90;99.90
19037;DHT22;9651;49.138;8.900;2024-01-30T01:12:23;1.90;99.90
19037;DHT22;9651;49.138;8.900;2024-01-30T01:16:25;1.80;99.90
19037;DHT22;9651;49.138;8.900;2024-01-30T01:20:28;1.80;99.90
19037;DHT22;9651;49.138;8.900;2024-01-30T01:24:31;1.80;99.90
19037;DHT22;9651;49.138;8.900;2024-01-30T01:28:33;1.80;99.90
19037;DHT22;9651;49.138;8.900;2024-01-30T01:32:35;1.70;99.90
19037;DHT22;9651;49.138;8.900;2024-01-30T01:36:38;1.70;99.90
19037;DHT22;9651;49.138;8.900;2024-01-30T01:40:40;1.70;99.90
19037;DHT22;9651;49.138;8.900;2024-01-30T01:44:44;1.70;99.90
19037;DHT22;9651;49.138;8.900;2024-01-30T01:48:46;1.60;99.90
19037;DHT22;9651;49.138;8.900;2024-01-30T01:52:50;1.60;99.90
19037;DHT22;9651;49.138;8.900;2024-01-30T01:56:52;1.60;99.90
19037;DHT22;9651;49.138;8.900;2024-01-30T02:00:55;1.60;99.90
19037;DHT22;9651;49.138;8.900;2024-01-30T02:04:57;1.50;99.90
19037;DHT22;9651;49.138;8.900;2024-01-30T02:09:01;1.50;99.90
19037;DHT22;9651;49.138;8.900;2024-01-30T02:13:05;1.50;99.90
19037;DHT22;9651;49.138;8.900;2024-01-30T02:17:07;1.50;99.90
19037;DHT22;9651;49.138;8.900;2024-01-30T02:21:10;1.50;99.90
19037;DHT22;9651;49.138;8.900;2024-01-30T02:25:12;1.50;99.90
19037;DHT22;9651;49.138;8.900;2024-01-30T02:29:13;1.50;99.90
19037;DHT22;9651;49.138;8.900;2024-01-30T02:33:15;1.50;99.90
19037;DHT22;9651;49.138;8.900;2024-01-30T02:37:19;1.50;99.90
19037;DHT22;9651;49.138;8.900;2024-01-30T02:41:20;1.50;99.90
19037;DHT22;9651;49.138;8.900;2024-01-30T02:45:22;1.40;99.90
19037;DHT22;9651;49.138;8.900;2024-01-30T02:49:24;1.40;99.90
19037;DHT22;9651;49.138;8.900;2024-01-30T02:53:28;1.40;99.90
19037;DHT22;9651;49.138;8.900;2024-01-30T02:57:30;1.40;99.90
19037;DHT22;9651;49.138;8.900;2024-01-30T03:01:32;1.40;99.90
19037;DHT22;9651;49.138;8.900;2024-01-30T03:05:33;1.40;99.90
19037;DHT22;9651;49.138;8.900;2024-01-30T03:09:37;1.30;99.90
19037;DHT22;9651;49.138;8.900;2024-01-30T03:13:39;1.40;99.90
19037;DHT22;9651;49.138;8.900;2024-01-30T03:17:41;1.40;99.90
19037;DHT22;9651;49.138;8.900;2024-01-30T03:21:43;1.30;99.90
19037;DHT22;9651;49.138;8.900;2024-01-30T03:25:46;1.30;99.90
19037;DHT22;9651;49.138;8.900;2024-01-30T03:29:48;1.30;99.90
19037;DHT22;9651;49.138;8.900;2024-01-30T03:33:49;1.30;99.90
19037;DHT22;9651;49.138;8.900;2024-01-30T03:37:51;1.30;99.90
19037;DHT22;9651;49.138;8.900;2024-01-30T03:41:54;1.20;99.90
19037;DHT22;9651;49.138;8.900;2024-01-30T03:45:56;1.20;99.90
19037;DHT22;9651;49.138;8.900;2024-01-30T03:49:58;1.20;99.90
19037;DHT22;9651;49.138;8.900;2024-01-30T03:54:00;1.20;99.90
19037;DHT22;9651;49.138;8.900;2024-01-30T03:58:04;1.20;99.90
19037;DHT22;9651;49.138;8.900;2024-01-30T04:02:05;1.20;99.90
19037;DHT22;9651;49.138;8.900;2024-01-30T04:06:07;1.20;99.90
19037;DHT22;9651;49.138;8.900;2024-01-30T04:10:09;1.20;99.90
19037;DHT22;9651;49.138;8.900;2024-01-30T04:14:13;1.20;99.90
19037;DHT22;9651;49.138;8.900;2024-01-30T04:18:14;1.10;99.90
19037;DHT22;9651;49.138;8.900;2024-01-30T04:22:16;1.10;99.90
19037;DHT22;9651;49.138;8.900;2024-01-30T04:26:18;1.10;99.90
19037;DHT22;9651;49.138;8.900;2024-01-30T04:30:21;1.20;99.90
19037;DHT22;9651;49.138;8.900;2024-01-30T04:34:23;1.10;99.90
19037;DHT22;9651;49.138;8.900;2024-01-30T04:38:25;1.10;99.90
19037;DHT22;9651;49.138;8.900;2024-01-30T04:42:27;1.10;99.90
19037;DHT22;9651;49.138;8.900;2024-01-30T04:46:30;1.10;99.90
19037;DHT22;9651;49.138;8.900;2024-01-30T04:50:32;1.10;99.90
19037;DHT22;9651;49.138;8.900;2024-01-30T04:54:34;1.10;99.90
19037;DHT22;9651;49.138;8.900;2024-01-30T04:58:36;1.10;99.90
19037;DHT22;9651;49.138;8.900;2024-01-30T05:02:39;1.10;99.90
19037;DHT22;9651;49.138;8.900;2024-01-30T05:06:41;1.10;99.90
19037;DHT22;9651;49.138;8.900;2024-01-30T05:10:43;1.20;99.90
19037;DHT22;9651;49.138;8.900;2024-01-30T05:14:45;1.20;99.90
19037;DHT22;9651;49.138;8.900;2024-01-30T05:18:48;1.10;99.90
19037;DHT22;9651;49.138;8.900;2024-01-30T05:22:50;1.10;99.90
19037;DHT22;9651;49.138;8.900;2024-01-30T05:26:53;1.10;99.90
19037;DHT22;9651;49.138;8.900;2024-01-30T05:30:54;1.00;99.90
19037;DHT22;9651;49.138;8.900;2024-01-30T05:34:58;1.00;99.90
19037;DHT22;9651;49.138;8.900;2024-01-30T05:39:00;1.00;99.90
19037;DHT22;9651;49.138;8.900;2024-01-30T05:43:02;1.00;99.90
19037;DHT22;9651;49.138;8.900;2024-01-30T05:47:04;1.00;99.90
19037;DHT22;9651;49.138;8.900;2024-01-30T05:51:08;1.00;99.90
19037;DHT22;9651;49.138;8.900;2024-01-30T05:55:11;0.90;99.90
19037;DHT22;9651;49.138;8.900;2024-01-30T05:59:13;0.90;99.90
19037;DHT22;9651;49.138;8.900;2024-01-30T06:03:15;0.90;99.90
19037;DHT22;9651;49.138;8.900;2024-01-30T06:07:18;0.90;99.90
19037;DHT22;9651;49.138;8.900;2024-01-30T06:11:20;0.90;99.90
19037;DHT22;9651;49.138;8.900;2024-01-30T06:15:22;0.90;99.90
19037;DHT22;9651;49.138;8.900;2024-01-30T06:19:24;0.90;99.90
19037;DHT22;9651;49.138;8.900;2024-01-30T06:23:27;0.90;99.90
19037;DHT22;9651;49.138;8.900;2024-01-30T06:27:29;0.90;99.90
19037;DHT22;9651;49.138;8.900;2024-01-30T06:31:31;0.90;99.90
19037;DHT22;9651;49.138;8.900;2024-01-30T06:35:33;0.90;99.90
19037;DHT22;9651;49.138;8.900;2024-01-30T06:39:38;0.90;99.90
19037;DHT22;9651;49.138;8.900;2024-01-30T06:43:39;0.90;99.90
19037;DHT22;9651;49.138;8.900;2024-01-30T06:47:41;0.90;99.90
19037;DHT22;9651;49.138;8.900;2024-01-30T06:51:43;0.90;99.90
19037;DHT22;9651;49.138;8.900;2024-01-30T06:55:46;0.90;99.90
19037;DHT22;9651;49.138;8.900;2024-01-30T06:59:48;0.90;99.90
19037;DHT22;9651;49.138;8.900;2024-01-30T07:03:50;0.90;99.90
19037;DHT22;9651;49.138;8.900;2024-01-30T07:07:52;0.90;99.90
19037;DHT22;9651;49.138;8.900;2024-01-30T07:11:55;0.90;99.90
19037;DHT22;9651;49.138;8.900;2024-01-30T07:15:58;0.90;99.90
19037;DHT22;9651;49.138;8.900;2024-01-30T07:20:01;0.90;99.90
19037;DHT22;9651;49.138;8.900;2024-01-30T07:24:04;0.90;99.90
19037;DHT22;9651;49.138;8.900;2024-01-30T07:28:07;1.00;99.90
19037;DHT22;9651;49.138;8.900;2024-01-30T07:32:10;1.00;99.90
19037;DHT22;9651;49.138;8.900;2024-01-30T07:36:12;1.10;99.90
19037;DHT22;9651;49.138;8.900;2024-01-30T07:40:14;1.20;99.90
19037;DHT22;9651;49.138;8.900;2024-01-30T07:44:17;1.30;99.90
19037;DHT22;9651;49.138;8.900;2024-01-30T07:48:19;1.30;99.90
19037;DHT22;9651;49.138;8.900;2024-01-30T07:52:21;1.40;99.90
19037;DHT22;9651;49.138;8.900;2024-01-30T07:56:28;1.50;99.90
19037;DHT22;9651;49.138;8.900;2024-01-30T08:00:53;1.60;99.90
19037;DHT22;9651;49.138;8.900;2024-01-30T08:04:55;1.70;99.90
19037;DHT22;9651;49.138;8.900;2024-01-30T08:08:57;1.80;99.90
19037;DHT22;9651;49.138;8.900;2024-01-30T08:13:00;1.90;99.90
19037;DHT22;9651;49.138;8.900;2024-01-30T08:17:03;2.00;99.90
19037;DHT22;9651;49.138;8.900;2024-01-30T08:21:05;2.10;99.90
19037;DHT22;9651;49.138;8.900;2024-01-30T08:25:07;2.70;99.90
19037;DHT22;9651;49.138;8.900;2024-01-30T08:29:10;3.20;99.90
19037;DHT22;9651;49.138;8.900;2024-01-30T08:33:13;3.20;99.90
19037;DHT22;9651;49.138;8.900;2024-01-30T08:37:15;3.10;99.90
19037;DHT22;9651;49.138;8.900;2024-01-30T08:41:17;3.10;99.90
19037;DHT22;9651;49.138;8.900;2024-01-30T08:45:19;3.20;99.90
19037;DHT22;9651;49.138;8.900;2024-01-30T08:49:23;3.30;99.90
19037;DHT22;9651;49.138;8.900;2024-01-30T08:53:24;3.40;99.90
19037;DHT22;9651;49.138;8.900;2024-01-30T08:57:27;3.60;99.90
19037;DHT22;9651;49.138;8.900;2024-01-30T09:01:29;4.00;99.90
19037;DHT22;9651;49.138;8.900;2024-01-30T09:05:33;4.30;99.90
19037;DHT22;9651;49.138;8.900;2024-01-30T09:09:35;4.80;99.90
19037;DHT22;9651;49.138;8.900;2024-01-30T09:13:37;5.10;99.90
19037;DHT22;9651;49.138;8.900;2024-01-30T09:17:39;5.20;99.90
19037;DHT22;9651;49.138;8.900;2024-01-30T09:21:42;5.30;99.90
19037;DHT22;9651;49.138;8.900;2024-01-30T09:25:44;5.30;99.90
19037;DHT22;9651;49.138;8.900;2024-01-30T09:29:46;5.20;99.90
19037;DHT22;9651;49.138;8.900;2024-01-30T09:33:48;5.40;99.90
19037;DHT22;9651;49.138;8.900;2024-01-30T09:37:53;5.50;99.90
19037;DHT22;9651;49.138;8.900;2024-01-30T09:42:01;5.50;99.90
19037;DHT22;9651;49.138;8.900;2024-01-30T09:46:05;5.60;99.90
19037;DHT22;9651;49.138;8.900;2024-01-30T09:50:09;5.60;99.90
19037;DHT22;9651;49.138;8.900;2024-01-30T09:54:14;5.70;99.90
19037;DHT22;9651;49.138;8.900;2024-01-30T09:58:16;5.80;99.90
19037;DHT22;9651;49.138;8.900;2024-01-30T10:02:19;5.80;99.90
19037;DHT22;9651;49.138;8.900;2024-01-30T10:06:21;5.90;99.90
19037;DHT22;9651;49.138;8.900;2024-01-30T10:10:25;6.00;99.90
19037;DHT22;9651;49.138;8.900;2024-01-30T10:14:28;6.10;99.90
19037;DHT22;9651;49.138;8.900;2024-01-30T10:18:29;6.30;99.90
19037;DHT22;9651;49.138;8.900;2024-01-30T10:22:31;6.50;99.90
19037;DHT22;9651;49.138;8.900;2024-01-30T10:26:37;6.70;99.90
19037;DHT22;9651;49.138;8.900;2024-01-30T10:30:39;6.60;99.90
19037;DHT22;9651;49.138;8.900;2024-01-30T10:34:41;6.80;99.90
19037;DHT22;9651;49.138;8.900;2024-01-30T10:38:43;6.90;99.90
19037;DHT22;9651;49.138;8.900;2024-01-30T10:42:49;7.00;99.90
19037;DHT22;9651;49.138;8.900;2024-01-30T10:46:59;7.00;99.90
19037;DHT22;9651;49.138;8.900;2024-01-30T10:51:02;7.10;99.90
19037;DHT22;9651;49.138;8.900;2024-01-30T10:55:05;7.00;99.90
19037;DHT22;9651;49.138;8.900;2024-01-30T10:59:10;6.70;99.90
19037;DHT22;9651;49.138;8.900;2024-01-30T11:03:13;6.90;99.90
19037;DHT22;9651;49.138;8.900;2024-01-30T11:07:16;7.00;99.90
19037;DHT22;9651;49.138;8.900;2024-01-30T11:11:18;7.20;99.90
19037;DHT22;9651;49.138;8.900;2024-01-30T11:15:24;7.20;99.90
19037;DHT22;9651;49.138;8.900;2024-01-30T11:19:30;7.30;99.90
19037;DHT22;9651;49.138;8.900;2024-01-30T11:23:33;7.40;99.90
19037;DHT22;9651;49.138;8.900;2024-01-30T11:27:36;7.60;99.90
19037;DHT22;9651;49.138;8.900;2024-01-30T11:31:40;7.80;99.90
19037;DHT22;9651;49.138;8.900;2024-01-30T11:35:53;8.00;99.90
19037;DHT22;9651;49.138;8.900;2024-01-30T11:39:55;8.20;99.90
19037;DHT22;9651;49.138;8.900;2024-01-30T11:43:57;8.20;99.90
19037;DHT22;9651;49.138;8.900;2024-01-30T11:48:01;8.30;99.90
19037;DHT22;9651;49.138;8.900;2024-01-30T11:52:05;8.40;99.90
19037;DHT22;9651;49.138;8.900;2024-01-30T11:56:07;8.60;99.90
19037;DHT22;9651;49.138;8.900;2024-01-30T12:00:14;8.70;99.90
19037;DHT22;9651;49.138;8.900;2024-01-30T12:04:18;8.30;99.90
19037;DHT22;9651;49.138;8.900;2024-01-30T12:08:20;8.50;99.90
19037;DHT22;9651;49.138;8.900;2024-01-30T12:12:22;8.70;99.90
19037;DHT22;9651;49.138;8.900;2024-01-30T12:16:25;9.00;99.90
19037;DHT22;9651;49.138;8.900;2024-01-30T12:20:29;9.20;99.90
19037;DHT22;9651;49.138;8.900;2024-01-30T12:24:30;9.40;99.90
19037;DHT22;9651;49.138;8.900;2024-01-30T12:28:33;9.50;99.90
19037;DHT22;9651;49.138;8.900;2024-01-30T12:32:35;9.60;99.90
19037;DHT22;9651;49.138;8.900;2024-01-30T12:36:39;9.70;99.90
19037;DHT22;9651;49.138;8.900;2024-01-30T12:40:41;9.70;99.90
19037;DHT22;9651;49.138;8.900;2024-01-30T12:44:43;9.50;99.90
19037;DHT22;9651;49.138;8.900;2024-01-30T12:48:45;9.40;99.90
19037;DHT22;9651;49.138;8.900;2024-01-30T12:52:48;9.40;99.90
19037;DHT22;9651;49.138;8.900;2024-01-30T12:56:50;9.50;99.90
19037;DHT22;9651;49.138;8.900;2024-01-30T13:00:53;9.70;99.90
19037;DHT22;9651;49.138;8.900;2024-01-30T13:04:56;9.80;99.90
19037;DHT22;9651;49.138;8.900;2024-01-30T13:08:59;9.90;99.90
19037;DHT22;9651;49.138;8.900;2024-01-30T13:13:01;10.00;99.90
19037;DHT22;9651;49.138;8.900;2024-01-30T13:17:03;9.90;99.90
19037;DHT22;9651;49.138;8.900;2024-01-30T13:21:05;9.90;99.90
19037;DHT22;9651;49.138;8.900;2024-01-30T13:25:08;9.90;99.90
19037;DHT22;9651;49.138;8.900;2024-01-30T13:29:10;9.90;99.90
19037;DHT22;9651;49.138;8.900;2024-01-30T13:33:12;10.00;99.90
19037;DHT22;9651;49.138;8.900;2024-01-30T13:37:14;10.10;99.90
19037;DHT22;9651;49.138;8.900;2024-01-30T13:41:17;10.10;99.90
19037;DHT22;9651;49.138;8.900;2024-01-30T13:45:19;10.10;99.90
19037;DHT22;9651;49.138;8.900;2024-01-30T13:49:21;10.10;99.90
19037;DHT22;9651;49.138;8.900;2024-01-30T13:53:23;10.00;99.90
19037;DHT22;9651;49.138;8.900;2024-01-30T13:57:27;10.00;99.90
19037;DHT22;9651;49.138;8.900;2024-01-30T14:01:29;10.00;99.90
19037;DHT22;9651;49.138;8.900;2024-01-30T14:05:30;10.10;99.90
19037;DHT22;9651;49.138;8.900;2024-01-30T14:09:32;10.10;99.90
19037;DHT22;9651;49.138;8.900;2024-01-30T14:13:36;10.10;99.90
19037;DHT22;9651;49.138;8.900;2024-01-30T14:17:38;10.20;99.90
19037;DHT22;9651;49.138;8.900;2024-01-30T14:21:40;10.10;99.90
19037;DHT22;9651;49.138;8.900;2024-01-30T14:25:42;10.10;99.90
19037;DHT22;9651;49.138;8.900;2024-01-30T14:29:45;10.00;99.90
19037;DHT22;9651;49.138;8.900;2024-01-30T14:33:47;10.00;99.90
19037;DHT22;9651;49.138;8.900;2024-01-30T14:37:49;9.90;99.90
19037;DHT22;9651;49.138;8.900;2024-01-30T14:41:51;9.80;99.90
19037;DHT22;9651;49.138;8.900;2024-01-30T14:45:54;9.80;99.90
19037;DHT22;9651;49.138;8.900;2024-01-30T14:49:56;9.70;99.90
19037;DHT22;9651;49.138;8.900;2024-01-30T14:53:58;9.60;99.90
19037;DHT22;9651;49.138;8.900;2024-01-30T14:58:00;9.60;99.90
19037;DHT22;9651;49.138;8.900;2024-01-30T15:02:04;9.50;99.90
19037;DHT22;9651;49.138;8.900;2024-01-30T15:06:06;9.40;99.90
19037;DHT22;9651;49.138;8.900;2024-01-30T15:10:10;9.30;99.90
19037;DHT22;9651;49.138;8.900;2024-01-30T15:14:12;9.20;99.90
19037;DHT22;9651;49.138;8.900;2024-01-30T15:18:16;9.20;99.90
19037;DHT22;9651;49.138;8.900;2024-01-30T15:22:18;9.10;99.90
19037;DHT22;9651;49.138;8.900;2024-01-30T15:26:20;8.90;99.90
19037;DHT22;9651;49.138;8.900;2024-01-30T15:30:22;8.80;99.90
19037;DHT22;9651;49.138;8.900;2024-01-30T15:34:25;8.80;99.90
19037;DHT22;9651;49.138;8.900;2024-01-30T15:38:27;8.60;99.90
19037;DHT22;9651;49.138;8.900;2024-01-30T15:42:30;8.50;99.90
19037;DHT22;9651;49.138;8.900;2024-01-30T15:46:32;8.40;99.90
19037;DHT22;9651;49.138;8.900;2024-01-30T15:50:35;8.40;99.90
19037;DHT22;9651;49.138;8.900;2024-01-30T15:54:38;8.30;99.90
19037;DHT22;9651;49.138;8.900;2024-01-30T15:58:40;8.30;99.90
19037;DHT22;9651;49.138;8.900;2024-01-30T16:02:42;8.30;99.90
19037;DHT22;9651;49.138;8.900;2024-01-30T16:06:45;8.20;99.90
19037;DHT22;9651;49.138;8.900;2024-01-30T16:10:47;8.20;99.90
19037;DHT22;9651;49.138;8.900;2024-01-30T16:14:49;8.00;99.90
19037;DHT22;9651;49.138;8.900;2024-01-30T16:18:51;7.90;99.90
19037;DHT22;9651;49.138;8.900;2024-01-30T16:22:54;7.90;99.90
19037;DHT22;9651;49.138;8.900;2024-01-30T16:26:56;7.90;99.90
19037;DHT22;9651;49.138;8.900;2024-01-30T16:30:58;7.80;99.90
19037;DHT22;9651;49.138;8.900;2024-01-30T16:35:01;7.80;99.90
19037;DHT22;9651;49.138;8.900;2024-01-30T16:39:05;7.70;99.90
19037;DHT22;9651;49.138;8.900;2024-01-30T16:43:06;7.70;99.90
19037;DHT22;9651;49.138;8.900;2024-01-30T16:47:09;7.60;99.90
19037;DHT22;9651;49.138;8.900;2024-01-30T16:51:11;7.60;99.90
19037;DHT22;9651;49.138;8.900;2024-01-30T16:55:14;7.60;99.90
19037;DHT22;9651;49.138;8.900;2024-01-30T16:59:17;7.50;99.90
19037;DHT22;9651;49.138;8.900;2024-01-30T17:03:19;7.50;99.90
19037;DHT22;9651;49.138;8.900;2024-01-30T17:07:21;7.40;99.90
19037;DHT22;9651;49.138;8.900;2024-01-30T17:11:25;7.70;99.90
19037;DHT22;9651;49.138;8.900;2024-01-30T17:15:27;7.80;99.90
19037;DHT22;9651;49.138;8.900;2024-01-30T17:19:29;7.70;99.90
19037;DHT22;9651;49.138;8.900;2024-01-30T17:23:31;7.60;99.90
19037;DHT22;9651;49.138;8.900;2024-01-30T17:27:36;7.50;99.90
19037;DHT22;9651;49.138;8.900;2024-01-30T17:31:38;7.50;99.90
19037;DHT22;9651;49.138;8.900;2024-01-30T17:35:40;7.40;99.90
19037;DHT22;9651;49.138;8.900;2024-01-30T17:39:41;7.30;99.90
19037;DHT22;9651;49.138;8.900;2024-01-30T17:43:45;7.20;99.90
19037;DHT22;9651;49.138;8.900;2024-01-30T17:47:46;7.10;99.90
19037;DHT22;9651;49.138;8.900;2024-01-30T17:51:48;7.10;99.90
19037;DHT22;9651;49.138;8.900;2024-01-30T17:55:50;7.10;99.90
19037;DHT22;9651;49.138;8.900;2024-01-30T17:59:53;7.00;99.90
19037;DHT22;9651;49.138;8.900;2024-01-30T18:03:55;7.00;99.90
19037;DHT22;9651;49.138;8.900;2024-01-30T18:07:58;7.00;99.90
19037;DHT22;9651;49.138;8.900;2024-01-30T18:12:00;7.00;99.90
19037;DHT22;9651;49.138;8.900;2024-01-30T18:16:04;7.00;99.90
19037;DHT22;9651;49.138;8.900;2024-01-30T18:20:07;7.00;99.90
19037;DHT22;9651;49.138;8.900;2024-01-30T18:24:09;7.00;99.90
19037;DHT22;9651;49.138;8.900;2024-01-30T18:28:11;7.10;99.90
19037;DHT22;9651;49.138;8.900;2024-01-30T18:32:14;7.10;99.90
19037;DHT22;9651;49.138;8.900;2024-01-30T18:36:17;7.10;99.90
19037;DHT22;9651;49.138;8.900;2024-01-30T18:40:19;7.10;99.90
19037;DHT22;9651;49.138;8.900;2024-01-30T18:44:21;7.10;99.90
19037;DHT22;9651;49.138;8.900;2024-01-30T18:48:24;7.10;99.90
19037;DHT22;9651;49.138;8.900;2024-01-30T18:52:26;7.10;99.90
19037;DHT22;9651;49.138;8.900;2024-01-30T18:56:28;7.20;99.90
19037;DHT22;9651;49.138;8.900;2024-01-30T19:00:30;7.20;99.90
19037;DHT22;9651;49.138;8.900;2024-01-30T19:04:33;7.10;99.90
19037;DHT22;9651;49.138;8.900;2024-01-30T19:08:35;7.10;99.90
19037;DHT22;9651;49.138;8.900;2024-01-30T19:12:37;7.00;99.90
19037;DHT22;9651;49.138;8.900;2024-01-30T19:16:40;7.00;99.90
19037;DHT22;9651;49.138;8.900;2024-01-30T19:20:43;7.00;99.90
19037;DHT22;9651;49.138;8.900;2024-01-30T19:24:45;7.00;99.90
19037;DHT22;9651;49.138;8.900;2024-01-30T19:28:47;7.00;99.90
19037;DHT22;9651;49.138;8.900;2024-01-30T19:32:49;6.90;99.90
19037;DHT22;9651;49.138;8.900;2024-01-30T19:36:53;6.90;99.90
19037;DHT22;9651;49.138;8.900;2024-01-30T19:40:55;6.80;99.90
19037;DHT22;9651;49.138;8.900;2024-01-30T19:44:57;6.70;99.90
19037;DHT22;9651;49.138;8.900;2024-01-30T19:48:59;6.50;99.90
19037;DHT22;9651;49.138;8.900;2024-01-30T19:53:03;6.40;99.90
19037;DHT22;9651;49.138;8.900;2024-01-30T19:57:05;6.20;99.90
19037;DHT22;9651;49.138;8.900;2024-01-30T20:01:07;6.20;99.90
19037;DHT22;9651;49.138;8.900;2024-01-30T20:05:09;6.20;99.90
19037;DHT22;9651;49.138;8.900;2024-01-30T20:09:13;6.20;99.90
19037;DHT22;9651;49.138;8.900;2024-01-30T20:13:15;6.10;99.90
19037;DHT22;9651;49.138;8.900;2024-01-30T20:17:17;6.10;99.90
19037;DHT22;9651;49.138;8.900;2024-01-30T20:21:19;6.00;99.90
19037;DHT22;9651;49.138;8.900;2024-01-30T20:25:22;5.90;99.90
19037;DHT22;9651;49.138;8.900;2024-01-30T20:29:24;5.90;99.90
19037;DHT22;9651;49.138;8.900;2024-01-30T20:33:27;5.90;99.90
19037;DHT22;9651;49.138;8.900;2024-01-30T20:37:29;5.90;99.90
19037;DHT22;9651;49.138;8.900;2024-01-30T20:41:37;5.90;99.90
19037;DHT22;9651;49.138;8.900;2024-01-30T20:45:39;5.90;99.90
19037;DHT22;9651;49.138;8.900;2024-01-30T20:49:41;5.90;99.90
19037;DHT22;9651;49.138;8.900;2024-01-30T20:53:43;5.90;99.90
19037;DHT22;9651;49.138;8.900;2024-01-30T20:57:47;5.90;99.90
19037;DHT22;9651;49.138;8.900;2024-01-30T21:01:48;5.90;99.90
19037;DHT22;9651;49.138;8.900;2024-01-30T21:05:50;5.90;99.90
19037;DHT22;9651;49.138;8.900;2024-01-30T21:09:52;5.90;99.90
19037;DHT22;9651;49.138;8.900;2024-01-30T21:13:55;5.80;99.90
19037;DHT22;9651;49.138;8.900;2024-01-30T21:17:57;5.80;99.90
19037;DHT22;9651;49.138;8.900;2024-01-30T21:21:59;5.80;99.90
19037;DHT22;9651;49.138;8.900;2024-01-30T21:26:01;5.80;99.90
19037;DHT22;9651;49.138;8.900;2024-01-30T21:30:07;5.90;99.90
19037;DHT22;9651;49.138;8.900;2024-01-30T21:34:09;6.00;99.90
19037;DHT22;9651;49.138;8.900;2024-01-30T21:38:11;6.00;99.90
19037;DHT22;9651;49.138;8.900;2024-01-30T21:42:13;6.00;99.90
19037;DHT22;9651;49.138;8.900;2024-01-30T21:46:24;6.10;99.90
19037;DHT22;9651;49.138;8.900;2024-01-30T21:50:26;6.10;99.90
19037;DHT22;9651;49.138;8.900;2024-01-30T21:54:28;6.10;99.90
19037;DHT22;9651;49.138;8.900;2024-01-30T21:58:30;6.10;99.90
19037;DHT22;9651;49.138;8.900;2024-01-30T22:02:33;6.20;99.90
19037;DHT22;9651;49.138;8.900;2024-01-30T22:06:35;6.20;99.90
19037;DHT22;9651;49.138;8.900;2024-01-30T22:10:39;6.20;99.90
19037;DHT22;9651;49.138;8.900;2024-01-30T22:14:41;6.20;99.90
19037;DHT22;9651;49.138;8.900;2024-01-30T22:18:44;6.30;99.90
19037;DHT22;9651;49.138;8.900;2024-01-30T22:22:46;6.40;99.90
19037;DHT22;9651;49.138;8.900;2024-01-30T22:26:48;6.40;99.90
19037;DHT22;9651;49.138;8.900;2024-01-30T22:30:50;6.50;99.90
19037;DHT22;9651;49.138;8.900;2024-01-30T22:34:53;6.50;99.90
19037;DHT22;9651;49.138;8.900;2024-01-30T22:38:55;6.60;99.90
19037;DHT22;9651;49.138;8.900;2024-01-30T22:42:57;6.60;99.90
19037;DHT22;9651;49.138;8.900;2024-01-30T22:46:59;6.70;99.90
19037;DHT22;9651;49.138;8.900;2024-01-30T22:51:03;6.70;99.90
19037;DHT22;9651;49.138;8.900;2024-01-30T22:55:06;6.70;99.90
19037;DHT22;9651;49.138;8.900;2024-01-30T22:59:08;6.70;99.90
19037;DHT22;9651;49.138;8.900;2024-01-30T23:03:10;6.70;99.90
19037;DHT22;9651;49.138;8.900;2024-01-30T23:07:13;6.70;99.90
19037;DHT22;9651;49.138;8.900;2024-01-30T23:11:17;6.70;99.90
19037;DHT22;9651;49.138;8.900;2024-01-30T23:15:19;6.70;99.90
19037;DHT22;9651;49.138;8.900;2024-01-30T23:19:20;6.70;99.90
19037;DHT22;9651;49.138;8.900;2024-01-30T23:23:24;6.70;99.90
19037;DHT22;9651;49.138;8.900;2024-01-30T23:27:26;6.70;99.90
19037;DHT22;9651;49.138;8.900;2024-01-30T23:31:28;6.80;99.90
19037;DHT22;9651;49.138;8.900;2024-01-30T23:35:30;6.80;99.90
19037;DHT22;9651;49.138;8.900;2024-01-30T23:39:33;6.80;99.90
19037;DHT22;9651;49.138;8.900;2024-01-30T23:43:35;6.90;99.90
19037;DHT22;9651;49.138;8.900;2024-01-30T23:47:37;6.90;99.90
19037;DHT22;9651;49.138;8.900;2024-01-30T23:51:38;6.90;99.90
19037;DHT22;9651;49.138;8.900;2024-01-30T23:55:42;7.00;99.90
19037;DHT22;9651;49.138;8.900;2024-01-30T23:59:44;7.00;99.90
